createdAt,value
2023-09-04T00:00:44.580Z,100580.97
2023-09-04T00:06:46.491Z,100578.09
2023-09-04T00:12:48.420Z,100578.63
2023-09-04T00:18:50.435Z,100576.22
2023-09-04T00:24:52.383Z,100576.84
2023-09-04T00:30:55.361Z,100579.09
2023-09-04T00:36:57.281Z,100586.41
2023-09-04T00:42:59.238Z,100574.88
2023-09-04T00:49:01.231Z,100592.59
2023-09-04T00:55:06.243Z,100587.78
2023-09-04T01:01:08.368Z,100584.34
2023-09-04T01:07:10.315Z,100587.66
2023-09-04T01:13:34.618Z,100586.72
2023-09-04T01:19:40.401Z,100576.81
2023-09-04T01:25:53.616Z,100579.38
2023-09-04T01:32:02.549Z,100585.81
2023-09-04T01:38:05.570Z,100579.59
2023-09-04T01:44:08.114Z,100571.81
2023-09-04T01:50:10.563Z,100564.59
2023-09-04T01:56:12.609Z,100569.84
2023-09-04T02:02:14.529Z,100567.50
2023-09-04T02:08:16.707Z,100563.78
2023-09-04T02:14:18.658Z,100559.22
2023-09-04T02:20:20.581Z,100538.13
2023-09-04T02:26:22.601Z,100541.84
2023-09-04T02:32:24.559Z,100526.00
2023-09-04T02:38:26.522Z,100529.88
2023-09-04T02:44:30.391Z,100530.78
2023-09-04T02:50:32.327Z,100536.06
2023-09-04T02:56:34.277Z,100516.28
2023-09-04T03:02:36.936Z,100513.56
2023-09-04T03:08:42.015Z,100516.91
2023-09-04T03:14:44.035Z,100520.91
2023-09-04T03:20:46.067Z,100506.16
2023-09-04T03:26:47.987Z,100512.59
2023-09-04T03:32:50.541Z,100522.16
2023-09-04T03:38:52.752Z,100520.25
2023-09-04T03:44:54.698Z,100534.19
2023-09-04T03:51:00.920Z,100527.81
2023-09-04T03:57:03.366Z,100540.94
2023-09-04T04:03:05.555Z,100531.53
2023-09-04T04:09:08.182Z,100531.22
2023-09-04T04:15:11.218Z,100538.94
2023-09-04T04:21:13.699Z,100530.41
2023-09-04T04:27:18.811Z,100529.28
2023-09-04T04:33:20.817Z,100546.09
2023-09-04T04:39:22.859Z,100547.44
2023-09-04T04:45:25.071Z,100533.03
2023-09-04T04:51:27.009Z,100542.06
2023-09-04T04:57:29.323Z,100547.44
2023-09-04T05:03:31.318Z,100550.44
2023-09-04T05:09:33.248Z,100542.72
2023-09-04T05:15:35.256Z,100550.25
2023-09-04T05:21:50.313Z,100548.06
2023-09-04T05:27:57.776Z,100555.44
2023-09-04T05:33:59.775Z,100558.25
2023-09-04T05:40:01.799Z,100556.00
2023-09-04T05:46:03.954Z,100554.44
2023-09-04T05:52:06.348Z,100556.41
2023-09-04T05:58:08.290Z,100553.06
2023-09-04T06:04:12.235Z,100560.09
2023-09-04T06:10:14.358Z,100562.31
2023-09-04T06:16:22.670Z,100563.75
2023-09-04T06:22:24.627Z,100556.91
2023-09-04T06:28:27.584Z,100560.59
2023-09-04T06:34:29.855Z,100568.97
2023-09-04T06:40:31.853Z,100566.59
2023-09-04T06:46:34.361Z,100569.34
2023-09-04T06:52:36.891Z,100584.38
2023-09-04T06:58:38.860Z,100597.88
2023-09-04T07:04:40.864Z,100615.44
2023-09-04T07:10:43.791Z,100612.13
2023-09-04T07:16:57.717Z,100597.19
2023-09-04T07:23:19.025Z,100584.47
2023-09-04T07:29:23.186Z,100581.22
2023-09-04T07:35:25.130Z,100568.22
2023-09-04T07:41:27.111Z,100570.00
2023-09-04T07:47:29.115Z,100578.88
2023-09-04T07:53:31.058Z,100587.13
2023-09-04T07:59:33.045Z,100587.13
2023-09-04T08:05:35.482Z,100577.44
2023-09-04T08:11:37.495Z,100585.50
2023-09-04T08:17:42.286Z,100584.34
2023-09-04T08:23:44.465Z,100576.84
2023-09-04T08:29:46.546Z,100589.19
2023-09-04T08:35:48.592Z,100578.06
2023-09-04T08:41:51.596Z,100564.53
2023-09-04T08:47:56.164Z,100569.91
2023-09-04T08:54:00.986Z,100578.94
2023-09-04T09:00:04.445Z,100562.94
2023-09-04T09:06:06.529Z,100558.47
2023-09-04T09:12:08.582Z,100556.03
2023-09-04T09:18:10.562Z,100544.03
2023-09-04T09:24:20.308Z,100544.16
2023-09-04T09:30:22.328Z,100531.38
2023-09-04T09:36:25.847Z,100542.41
2023-09-04T09:42:27.828Z,100538.16
2023-09-04T09:48:32.205Z,100538.75
2023-09-04T09:54:39.267Z,100532.81
2023-09-04T10:00:42.406Z,100521.22
2023-09-04T10:06:46.024Z,100525.25
2023-09-04T10:12:53.203Z,100507.19
2023-09-04T10:18:58.037Z,100510.81
2023-09-04T10:25:20.632Z,100511.69
2023-09-04T10:31:25.575Z,100507.53
2023-09-04T10:37:30.507Z,100505.41
2023-09-04T10:43:43.044Z,100510.63
2023-09-04T10:49:46.223Z,100503.06
2023-09-04T10:56:11.837Z,100488.66
2023-09-04T11:02:35.473Z,100477.56
2023-09-04T11:08:48.907Z,100476.25
2023-09-04T11:14:57.251Z,100468.75
2023-09-04T11:21:01.513Z,100471.09
2023-09-04T11:27:04.607Z,100468.81
2023-09-04T11:33:06.639Z,100471.44
2023-09-04T11:39:13.967Z,100469.38
2023-09-04T11:45:16.169Z,100466.53
2023-09-04T11:51:18.176Z,100467.06
2023-09-04T11:57:20.420Z,100478.66
2023-09-04T12:03:22.410Z,100449.63
2023-09-04T12:09:24.692Z,100453.81
2023-09-04T12:15:28.588Z,100442.66
2023-09-04T12:21:30.552Z,100451.97
2023-09-04T12:27:35.121Z,100442.06
2023-09-04T12:33:44.275Z,100430.78
2023-09-04T12:39:46.360Z,100423.00
2023-09-04T12:45:48.428Z,100402.09
2023-09-04T12:51:50.495Z,100399.66
2023-09-04T12:58:01.404Z,100403.94
2023-09-04T13:04:04.444Z,100392.25
2023-09-04T13:10:07.253Z,100390.50
2023-09-04T13:16:09.512Z,100381.91
2023-09-04T13:22:11.494Z,100375.84
2023-09-04T13:28:13.450Z,100380.84
2023-09-04T13:34:15.396Z,100366.00
2023-09-04T13:40:17.446Z,100364.84
2023-09-04T13:46:19.531Z,100348.72
2023-09-04T13:52:23.882Z,100351.59
2023-09-04T13:58:26.715Z,100348.97
2023-09-04T14:04:28.654Z,100337.69
2023-09-04T14:10:31.031Z,100346.97
2023-09-04T14:16:33.138Z,100343.38
2023-09-04T14:22:35.138Z,100334.22
2023-09-04T14:28:37.084Z,100328.44
2023-09-04T14:34:39.043Z,100328.19
2023-09-04T14:40:45.939Z,100318.34
2023-09-04T14:46:48.085Z,100310.97
2023-09-04T14:52:52.825Z,100312.31
2023-09-04T14:58:55.783Z,100315.03
2023-09-04T15:04:57.732Z,100305.06
2023-09-04T15:10:59.701Z,100298.06
2023-09-04T15:17:01.656Z,100288.63
2023-09-04T15:23:04.034Z,100288.75
2023-09-04T15:29:06.030Z,100291.41
2023-09-04T15:35:08.371Z,100299.75
2023-09-04T15:41:10.360Z,100282.00
2023-09-04T15:47:14.161Z,100286.78
2023-09-04T15:53:16.653Z,100268.41
2023-09-04T15:59:18.560Z,100259.41
2023-09-04T16:05:20.534Z,100257.81
2023-09-04T16:11:22.633Z,100265.28
2023-09-04T16:17:24.712Z,100247.19
2023-09-04T16:23:26.773Z,100237.94
2023-09-04T16:29:28.752Z,100229.38
2023-09-04T16:35:30.738Z,100224.50
2023-09-04T16:41:32.683Z,100227.19
2023-09-04T16:47:34.656Z,100209.88
2023-09-04T16:53:36.665Z,100213.44
2023-09-04T16:59:38.614Z,100212.81
2023-09-04T17:05:40.575Z,100213.69
2023-09-04T17:11:42.631Z,100198.06
2023-09-04T17:17:45.109Z,100183.38
2023-09-04T17:23:47.050Z,100183.03
2023-09-04T17:29:49.021Z,100168.81
2023-09-04T17:35:50.982Z,100176.91
2023-09-04T17:41:54.254Z,100170.38
2023-09-04T17:47:56.322Z,100166.47
2023-09-04T17:53:58.345Z,100165.03
2023-09-04T18:00:00.303Z,100168.28
2023-09-04T18:06:02.249Z,100158.25
2023-09-04T18:12:04.774Z,100164.59
2023-09-04T18:18:06.812Z,100157.13
2023-09-04T18:24:08.963Z,100162.81
2023-09-04T18:30:13.580Z,100158.56
2023-09-04T18:36:16.710Z,100171.22
2023-09-04T18:42:18.697Z,100165.81
2023-09-04T18:48:20.623Z,100168.59
2023-09-04T18:54:22.619Z,100165.16
2023-09-04T19:00:24.789Z,100161.25
2023-09-04T19:06:26.798Z,100160.41
2023-09-04T19:12:28.772Z,100156.53
2023-09-04T19:18:30.767Z,100160.19
2023-09-04T19:24:32.801Z,100163.69
2023-09-04T19:30:34.877Z,100168.63
2023-09-04T19:36:36.909Z,100166.75
2023-09-04T19:42:38.856Z,100171.63
2023-09-04T19:48:40.791Z,100168.03
2023-09-04T19:54:42.753Z,100171.06
2023-09-04T20:00:45.142Z,100167.84
2023-09-04T20:06:47.093Z,100161.97
2023-09-04T20:12:49.493Z,100168.69
2023-09-04T20:18:51.455Z,100169.88
2023-09-04T20:24:54.164Z,100172.00
2023-09-04T20:30:57.215Z,100164.53
2023-09-04T20:37:03.088Z,100168.06
2023-09-04T20:43:05.126Z,100159.66
2023-09-04T20:49:07.069Z,100150.03
2023-09-04T20:55:09.245Z,100151.75
2023-09-04T21:01:11.271Z,100153.44
2023-09-04T21:07:13.181Z,100163.41
2023-09-04T21:13:33.380Z,100148.38
2023-09-04T21:19:53.947Z,100146.38
2023-09-04T21:26:15.309Z,100143.78
2023-09-04T21:32:36.068Z,100142.72
2023-09-04T21:38:56.545Z,100141.00
2023-09-04T21:45:17.054Z,100131.44
2023-09-04T21:51:37.254Z,100137.56
2023-09-04T21:57:58.004Z,100130.09
2023-09-04T22:04:18.771Z,100128.47
2023-09-04T22:10:39.248Z,100122.09
2023-09-04T22:17:02.215Z,100122.41
2023-09-04T22:23:23.422Z,100121.94
2023-09-04T22:29:44.360Z,100112.03
2023-09-04T22:36:05.002Z,100106.63
2023-09-04T22:42:25.515Z,100101.19
2023-09-04T22:48:45.745Z,100102.00
2023-09-04T22:55:06.165Z,100103.38
2023-09-04T23:01:31.205Z,100103.81
2023-09-04T23:07:52.092Z,100094.59
2023-09-04T23:14:12.750Z,100091.97
2023-09-04T23:20:33.222Z,100079.47
2023-09-04T23:26:46.421Z,100071.47
2023-09-04T23:33:07.002Z,100067.84
2023-09-04T23:39:10.388Z,100059.56
2023-09-04T23:45:13.124Z,100061.75
2023-09-04T23:51:15.026Z,100064.06
2023-09-04T23:57:16.936Z,100057.28
